Terminal Aerodrome Forecast
Issued by NWS

Home | Current Version | Previous Version | Text Only | Print | Product List | Glossary On
Versions: 1 2 3 4 5 6 7 8 9 10 11 12 13
000
FTUS45 KTFX 211123
TAFHVR
TAF
KHVR 211123Z 2112/2212 VRB05KT P6SM SCT100 BKN180
     FM211900 VRB05KT P6SM VCSH SCT060 BKN120
     FM212300 VRB06KT P6SM VCSH SCT050 OVC070 PROB30 2200/2206 TSRA
      BKN050CB
     FM220600 VRB05KT P6SM VCSH SCT040 OVC060=

USA.gov is the U.S. government's official web portal to all federal, state and local government web resources and services.